sensor_id;sensor_type;location;lat;lon;timestamp;pressure;altitude;pressure_sealevel;temperature;humidity
12468;BME280;57850;52.922;6.256;2022-12-07T00:00:52;101815.63;;;6.77;100.00
12468;BME280;57850;52.922;6.256;2022-12-07T00:03:19;101807.09;;;6.63;100.00
12468;BME280;57850;52.922;6.256;2022-12-07T00:05:45;101817.38;;;6.77;100.00
12468;BME280;57850;52.922;6.256;2022-12-07T00:08:12;101820.84;;;6.74;100.00
12468;BME280;57850;52.922;6.256;2022-12-07T00:10:40;101814.03;;;6.52;100.00
12468;BME280;57850;52.922;6.256;2022-12-07T00:13:06;101820.84;;;6.79;100.00
12468;BME280;57850;52.922;6.256;2022-12-07T00:15:33;101828.66;;;6.68;100.00
12468;BME280;57850;52.922;6.256;2022-12-07T00:18:00;101833.72;;;6.89;100.00
12468;BME280;57850;52.922;6.256;2022-12-07T00:20:27;101834.66;;;6.82;100.00
12468;BME280;57850;52.922;6.256;2022-12-07T00:22:54;101840.59;;;7.03;100.00
12468;BME280;57850;52.922;6.256;2022-12-07T00:25:20;101859.41;;;7.35;100.00
12468;BME280;57850;52.922;6.256;2022-12-07T00:27:48;101855.09;;;7.35;100.00
12468;BME280;57850;52.922;6.256;2022-12-07T00:30:15;101860.28;;;7.34;100.00
12468;BME280;57850;52.922;6.256;2022-12-07T00:32:42;101875.78;;;7.46;100.00
12468;BME280;57850;52.922;6.256;2022-12-07T00:35:08;101873.09;;;7.58;100.00
12468;BME280;57850;52.922;6.256;2022-12-07T00:37:35;101860.31;;;7.31;100.00
12468;BME280;57850;52.922;6.256;2022-12-07T00:40:02;101861.19;;;7.33;100.00
12468;BME280;57850;52.922;6.256;2022-12-07T00:42:29;101858.44;;;7.51;100.00
12468;BME280;57850;52.922;6.256;2022-12-07T00:44:58;101859.13;;;7.74;100.00
12468;BME280;57850;52.922;6.256;2022-12-07T00:47:25;101863.38;;;7.84;100.00
12468;BME280;57850;52.922;6.256;2022-12-07T00:49:53;101845.19;;;7.86;100.00
12468;BME280;57850;52.922;6.256;2022-12-07T00:52:20;101857.09;;;8.06;100.00
12468;BME280;57850;52.922;6.256;2022-12-07T00:54:47;101874.31;;;8.20;100.00
12468;BME280;57850;52.922;6.256;2022-12-07T00:57:14;101863.28;;;7.93;100.00
12468;BME280;57850;52.922;6.256;2022-12-07T00:59:41;101852.34;;;7.55;100.00
12468;BME280;57850;52.922;6.256;2022-12-07T01:02:09;101842.16;;;7.29;100.00
12468;BME280;57850;52.922;6.256;2022-12-07T01:04:36;101837.94;;;7.09;100.00
12468;BME280;57850;52.922;6.256;2022-12-07T01:07:03;101836.22;;;7.14;100.00
12468;BME280;57850;52.922;6.256;2022-12-07T01:09:30;101829.44;;;6.84;100.00
12468;BME280;57850;52.922;6.256;2022-12-07T01:11:58;101833.66;;;7.05;100.00
12468;BME280;57850;52.922;6.256;2022-12-07T01:14:25;101836.25;;;7.08;100.00
12468;BME280;57850;52.922;6.256;2022-12-07T01:16:52;101843.84;;;7.33;100.00
12468;BME280;57850;52.922;6.256;2022-12-07T01:19:20;101850.69;;;7.43;100.00
12468;BME280;57850;52.922;6.256;2022-12-07T01:21:46;101853.31;;;7.43;100.00
12468;BME280;57850;52.922;6.256;2022-12-07T01:24:13;101842.94;;;7.40;100.00
12468;BME280;57850;52.922;6.256;2022-12-07T01:26:39;101846.44;;;7.33;100.00
12468;BME280;57850;52.922;6.256;2022-12-07T01:29:06;101838.69;;;7.29;100.00
12468;BME280;57850;52.922;6.256;2022-12-07T01:31:33;101833.53;;;7.24;100.00
12468;BME280;57850;52.922;6.256;2022-12-07T01:34:00;101841.31;;;7.24;100.00
12468;BME280;57850;52.922;6.256;2022-12-07T01:36:30;101836.06;;;7.30;100.00
12468;BME280;57850;52.922;6.256;2022-12-07T01:38:59;101844.84;;;7.11;100.00
12468;BME280;57850;52.922;6.256;2022-12-07T01:41:28;101840.56;;;7.06;100.00
12468;BME280;57850;52.922;6.256;2022-12-07T01:46:56;101831.94;;;6.99;100.00
12468;BME280;57850;52.922;6.256;2022-12-07T01:49:29;101827.69;;;6.87;100.00
12468;BME280;57850;52.922;6.256;2022-12-07T01:52:03;101823.53;;;6.56;100.00
12468;BME280;57850;52.922;6.256;2022-12-07T01:54:34;101820.09;;;6.51;100.00
12468;BME280;57850;52.922;6.256;2022-12-07T01:57:02;101825.31;;;6.45;100.00
12468;BME280;57850;52.922;6.256;2022-12-07T01:59:29;101823.59;;;6.36;100.00
12468;BME280;57850;52.922;6.256;2022-12-07T02:01:56;101821.94;;;6.23;100.00
12468;BME280;57850;52.922;6.256;2022-12-07T02:04:24;101825.28;;;6.48;100.00
12468;BME280;57850;52.922;6.256;2022-12-07T02:06:51;101833.88;;;6.59;100.00
12468;BME280;57850;52.922;6.256;2022-12-07T02:09:20;101827.81;;;6.65;100.00
12468;BME280;57850;52.922;6.256;2022-12-07T02:11:47;101832.13;;;6.69;100.00
12468;BME280;57850;52.922;6.256;2022-12-07T02:14:13;101823.44;;;6.79;100.00
12468;BME280;57850;52.922;6.256;2022-12-07T02:16:48;101817.47;;;6.56;100.00
12468;BME280;57850;52.922;6.256;2022-12-07T02:19:39;101819.13;;;6.72;100.00
12468;BME280;57850;52.922;6.256;2022-12-07T02:22:22;101819.09;;;6.82;100.00
12468;BME280;57850;52.922;6.256;2022-12-07T02:25:00;101820.72;;;6.95;100.00
12468;BME280;57850;52.922;6.256;2022-12-07T02:27:38;101819.00;;;7.00;100.00
12468;BME280;57850;52.922;6.256;2022-12-07T02:30:10;101826.66;;;7.19;100.00
12468;BME280;57850;52.922;6.256;2022-12-07T02:32:43;101837.13;;;7.02;100.00
12468;BME280;57850;52.922;6.256;2022-12-07T02:35:14;101828.50;;;7.00;100.00
12468;BME280;57850;52.922;6.256;2022-12-07T02:37:49;101849.28;;;6.94;100.00
12468;BME280;57850;52.922;6.256;2022-12-07T02:40:23;101814.88;;;6.59;100.00
12468;BME280;57850;52.922;6.256;2022-12-07T02:42:57;101803.56;;;6.72;100.00
12468;BME280;57850;52.922;6.256;2022-12-07T02:45:27;101811.28;;;6.85;100.00
12468;BME280;57850;52.922;6.256;2022-12-07T02:47:58;101807.00;;;6.74;100.00
12468;BME280;57850;52.922;6.256;2022-12-07T02:50:27;101807.81;;;6.88;100.00
12468;BME280;57850;52.922;6.256;2022-12-07T02:52:55;101810.31;;;6.98;100.00
12468;BME280;57850;52.922;6.256;2022-12-07T02:55:27;101822.34;;;7.15;100.00
12468;BME280;57850;52.922;6.256;2022-12-07T02:58:09;101822.31;;;7.19;100.00
12468;BME280;57850;52.922;6.256;2022-12-07T03:00:51;101825.72;;;7.29;100.00
12468;BME280;57850;52.922;6.256;2022-12-07T03:03:18;101820.59;;;7.20;100.00
12468;BME280;57850;52.922;6.256;2022-12-07T03:05:58;101813.66;;;7.19;100.00
12468;BME280;57850;52.922;6.256;2022-12-07T03:08:33;101819.75;;;7.16;100.00
12468;BME280;57850;52.922;6.256;2022-12-07T03:11:05;101819.69;;;7.24;100.00
12468;BME280;57850;52.922;6.256;2022-12-07T03:13:35;101814.50;;;7.24;100.00
12468;BME280;57850;52.922;6.256;2022-12-07T03:16:09;101817.78;;;7.47;100.00
12468;BME280;57850;52.922;6.256;2022-12-07T03:18:44;101817.81;;;7.44;100.00
12468;BME280;57850;52.922;6.256;2022-12-07T03:21:16;101820.47;;;7.33;100.00
12468;BME280;57850;52.922;6.256;2022-12-07T03:23:47;101823.09;;;7.35;100.00
12468;BME280;57850;52.922;6.256;2022-12-07T03:26:17;101820.53;;;7.24;100.00
12468;BME280;57850;52.922;6.256;2022-12-07T03:28:47;101818.78;;;7.28;100.00
12468;BME280;57850;52.922;6.256;2022-12-07T03:31:21;101809.31;;;7.22;100.00
12468;BME280;57850;52.922;6.256;2022-12-07T03:33:53;101805.81;;;7.28;100.00
12468;BME280;57850;52.922;6.256;2022-12-07T03:36:26;101816.22;;;7.25;100.00
12468;BME280;57850;52.922;6.256;2022-12-07T03:39:00;101800.75;;;7.08;100.00
12468;BME280;57850;52.922;6.256;2022-12-07T03:41:31;101799.97;;;6.97;100.00
12468;BME280;57850;52.922;6.256;2022-12-07T03:43:59;101802.53;;;6.98;100.00
12468;BME280;57850;52.922;6.256;2022-12-07T03:46:35;101802.59;;;6.91;100.00
12468;BME280;57850;52.922;6.256;2022-12-07T03:49:08;101800.88;;;6.90;100.00
12468;BME280;57850;52.922;6.256;2022-12-07T03:51:40;101804.38;;;6.83;100.00
12468;BME280;57850;52.922;6.256;2022-12-07T03:54:14;101798.31;;;6.87;100.00
12468;BME280;57850;52.922;6.256;2022-12-07T03:56:43;101794.06;;;6.72;100.00
12468;BME280;57850;52.922;6.256;2022-12-07T03:59:11;101790.66;;;6.58;100.00
12468;BME280;57850;52.922;6.256;2022-12-07T04:01:42;101783.84;;;6.42;100.00
12468;BME280;57850;52.922;6.256;2022-12-07T04:04:09;101782.19;;;6.20;100.00
12468;BME280;57850;52.922;6.256;2022-12-07T04:06:36;101783.81;;;6.48;100.00
12468;BME280;57850;52.922;6.256;2022-12-07T04:09:02;101788.19;;;6.35;100.00
12468;BME280;57850;52.922;6.256;2022-12-07T04:11:29;101792.47;;;6.36;100.00
12468;BME280;57850;52.922;6.256;2022-12-07T04:13:55;101792.47;;;6.39;100.00
12468;BME280;57850;52.922;6.256;2022-12-07T04:16:41;101789.94;;;6.32;100.00
12468;BME280;57850;52.922;6.256;2022-12-07T04:19:08;101789.06;;;6.30;100.00
12468;BME280;57850;52.922;6.256;2022-12-07T04:21:34;101802.00;;;6.42;100.00
12468;BME280;57850;52.922;6.256;2022-12-07T04:24:01;101794.25;;;6.28;100.00
12468;BME280;57850;52.922;6.256;2022-12-07T04:26:28;101797.72;;;6.29;100.00
12468;BME280;57850;52.922;6.256;2022-12-07T04:28:54;101794.28;;;6.25;100.00
12468;BME280;57850;52.922;6.256;2022-12-07T04:31:21;101796.78;;;6.51;100.00
12468;BME280;57850;52.922;6.256;2022-12-07T04:33:49;101807.91;;;6.68;100.00
12468;BME280;57850;52.922;6.256;2022-12-07T04:36:15;101804.44;;;6.71;100.00
12468;BME280;57850;52.922;6.256;2022-12-07T04:38:42;101817.28;;;6.95;100.00
12468;BME280;57850;52.922;6.256;2022-12-07T04:41:09;101797.44;;;6.88;100.00
12468;BME280;57850;52.922;6.256;2022-12-07T04:43:35;101790.59;;;6.79;100.00
12468;BME280;57850;52.922;6.256;2022-12-07T04:46:02;101796.69;;;6.66;100.00
12468;BME280;57850;52.922;6.256;2022-12-07T04:48:29;101787.16;;;6.68;100.00
12468;BME280;57850;52.922;6.256;2022-12-07T04:50:57;101779.38;;;6.73;100.00
12468;BME280;57850;52.922;6.256;2022-12-07T04:53:24;101788.88;;;6.72;100.00
12468;BME280;57850;52.922;6.256;2022-12-07T04:55:50;101778.56;;;6.62;100.00
12468;BME280;57850;52.922;6.256;2022-12-07T04:58:17;101780.38;;;6.44;100.00
12468;BME280;57850;52.922;6.256;2022-12-07T05:00:43;101775.25;;;6.29;100.00
12468;BME280;57850;52.922;6.256;2022-12-07T05:03:10;101778.69;;;6.39;100.00
12468;BME280;57850;52.922;6.256;2022-12-07T05:05:40;101765.84;;;6.07;100.00
12468;BME280;57850;52.922;6.256;2022-12-07T05:08:08;101770.88;;;6.36;100.00
12468;BME280;57850;52.922;6.256;2022-12-07T05:10:34;101760.69;;;5.98;100.00
12468;BME280;57850;52.922;6.256;2022-12-07T05:13:01;101764.06;;;6.17;100.00
12468;BME280;57850;52.922;6.256;2022-12-07T05:15:29;101767.47;;;6.29;100.00
12468;BME280;57850;52.922;6.256;2022-12-07T05:17:55;101762.28;;;6.31;100.00
12468;BME280;57850;52.922;6.256;2022-12-07T05:20:22;101757.16;;;6.14;100.00
12468;BME280;57850;52.922;6.256;2022-12-07T05:22:49;101755.47;;;6.03;100.00
12468;BME280;57850;52.922;6.256;2022-12-07T05:25:16;101764.91;;;6.19;100.00
12468;BME280;57850;52.922;6.256;2022-12-07T05:27:43;101764.91;;;6.17;100.00
12468;BME280;57850;52.922;6.256;2022-12-07T05:30:10;101768.34;;;6.21;100.00
12468;BME280;57850;52.922;6.256;2022-12-07T05:32:37;101762.28;;;6.32;100.00
12468;BME280;57850;52.922;6.256;2022-12-07T05:35:04;101765.72;;;6.39;100.00
12468;BME280;57850;52.922;6.256;2022-12-07T05:37:31;101766.63;;;6.26;100.00
12468;BME280;57850;52.922;6.256;2022-12-07T05:39:59;101763.13;;;6.33;100.00
12468;BME280;57850;52.922;6.256;2022-12-07T05:42:27;101761.44;;;6.26;100.00
12468;BME280;57850;52.922;6.256;2022-12-07T05:44:55;101762.31;;;6.20;100.00
12468;BME280;57850;52.922;6.256;2022-12-07T05:47:21;101778.66;;;6.36;100.00
12468;BME280;57850;52.922;6.256;2022-12-07T05:49:48;101782.09;;;6.42;100.00
12468;BME280;57850;52.922;6.256;2022-12-07T05:52:15;101773.47;;;6.36;100.00
12468;BME280;57850;52.922;6.256;2022-12-07T05:54:42;101777.81;;;6.38;100.00
12468;BME280;57850;52.922;6.256;2022-12-07T05:57:12;101774.38;;;6.30;100.00
12468;BME280;57850;52.922;6.256;2022-12-07T05:59:40;101776.00;;;6.56;100.00
12468;BME280;57850;52.922;6.256;2022-12-07T06:02:08;101774.25;;;6.64;100.00
12468;BME280;57850;52.922;6.256;2022-12-07T06:04:36;101787.09;;;6.80;100.00
12468;BME280;57850;52.922;6.256;2022-12-07T06:07:03;101781.88;;;6.83;100.00
12468;BME280;57850;52.922;6.256;2022-12-07T06:09:31;101786.19;;;6.90;100.00
12468;BME280;57850;52.922;6.256;2022-12-07T06:12:01;101801.63;;;7.09;100.00
12468;BME280;57850;52.922;6.256;2022-12-07T06:14:46;101790.44;;;6.99;100.00
12468;BME280;57850;52.922;6.256;2022-12-07T06:17:13;101800.75;;;7.10;100.00
12468;BME280;57850;52.922;6.256;2022-12-07T06:19:40;101789.53;;;7.06;100.00
12468;BME280;57850;52.922;6.256;2022-12-07T06:22:07;101795.53;;;7.14;100.00
12468;BME280;57850;52.922;6.256;2022-12-07T06:24:36;101786.97;;;7.05;100.00
12468;BME280;57850;52.922;6.256;2022-12-07T06:27:03;101786.19;;;6.90;100.00
12468;BME280;57850;52.922;6.256;2022-12-07T06:29:29;101782.75;;;6.84;100.00
12468;BME280;57850;52.922;6.256;2022-12-07T06:31:57;101780.25;;;6.69;100.00
12468;BME280;57850;52.922;6.256;2022-12-07T06:34:25;101779.47;;;6.53;100.00
12468;BME280;57850;52.922;6.256;2022-12-07T06:36:52;101779.44;;;6.64;100.00
12468;BME280;57850;52.922;6.256;2022-12-07T06:39:21;101784.56;;;6.70;100.00
12468;BME280;57850;52.922;6.256;2022-12-07T06:41:48;101790.63;;;6.73;100.00
12468;BME280;57850;52.922;6.256;2022-12-07T06:44:14;101782.06;;;6.58;100.00
12468;BME280;57850;52.922;6.256;2022-12-07T06:46:41;101782.09;;;6.44;100.00
12468;BME280;57850;52.922;6.256;2022-12-07T06:49:09;101788.97;;;6.54;100.00
12468;BME280;57850;52.922;6.256;2022-12-07T06:51:35;101790.63;;;6.64;100.00
12468;BME280;57850;52.922;6.256;2022-12-07T06:54:06;101775.16;;;6.54;100.00
12468;BME280;57850;52.922;6.256;2022-12-07T06:56:33;101769.16;;;6.36;100.00
12468;BME280;57850;52.922;6.256;2022-12-07T06:59:00;101777.72;;;6.60;100.00
12468;BME280;57850;52.922;6.256;2022-12-07T07:01:26;101782.84;;;6.67;100.00
12468;BME280;57850;52.922;6.256;2022-12-07T07:03:53;101776.00;;;6.54;100.00
12468;BME280;57850;52.922;6.256;2022-12-07T07:06:21;101784.66;;;6.50;100.00
12468;BME280;57850;52.922;6.256;2022-12-07T07:08:47;101792.47;;;6.41;100.00
12468;BME280;57850;52.922;6.256;2022-12-07T07:11:14;101789.00;;;6.48;100.00
12468;BME280;57850;52.922;6.256;2022-12-07T07:13:40;101786.38;;;6.50;100.00
12468;BME280;57850;52.922;6.256;2022-12-07T07:16:07;101791.56;;;6.53;100.00
12468;BME280;57850;52.922;6.256;2022-12-07T07:18:34;101792.47;;;6.41;100.00
12468;BME280;57850;52.922;6.256;2022-12-07T07:21:00;101792.53;;;6.27;100.00
12468;BME280;57850;52.922;6.256;2022-12-07T07:23:29;101792.47;;;6.42;100.00
12468;BME280;57850;52.922;6.256;2022-12-07T07:25:56;101806.28;;;6.47;100.00
12468;BME280;57850;52.922;6.256;2022-12-07T07:28:23;101826.16;;;6.45;100.00
12468;BME280;57850;52.922;6.256;2022-12-07T07:30:49;101835.66;;;6.48;100.00
12468;BME280;57850;52.922;6.256;2022-12-07T07:33:16;101820.13;;;6.40;100.00
12468;BME280;57850;52.922;6.256;2022-12-07T07:35:42;101807.09;;;6.63;100.00
12468;BME280;57850;52.922;6.256;2022-12-07T07:38:09;101812.16;;;6.80;100.00
12468;BME280;57850;52.922;6.256;2022-12-07T07:40:37;101796.75;;;6.50;100.00
12468;BME280;57850;52.922;6.256;2022-12-07T07:43:03;101771.00;;;6.13;100.00
12468;BME280;57850;52.922;6.256;2022-12-07T07:45:30;101778.63;;;6.50;100.00
12468;BME280;57850;52.922;6.256;2022-12-07T07:47:56;101777.63;;;6.79;100.00
12468;BME280;57850;52.922;6.256;2022-12-07T07:50:23;101789.69;;;6.85;100.00
12468;BME280;57850;52.922;6.256;2022-12-07T07:52:50;101790.53;;;6.85;100.00
12468;BME280;57850;52.922;6.256;2022-12-07T07:55:17;101799.97;;;6.95;100.00
12468;BME280;57850;52.922;6.256;2022-12-07T07:57:45;101793.16;;;6.81;100.00
12468;BME280;57850;52.922;6.256;2022-12-07T08:00:13;101779.53;;;6.41;100.00
12468;BME280;57850;52.922;6.256;2022-12-07T08:02:42;101781.94;;;6.77;100.00
12468;BME280;57850;52.922;6.256;2022-12-07T08:05:09;101782.06;;;6.45;100.00
12468;BME280;57850;52.922;6.256;2022-12-07T08:07:37;101786.25;;;6.77;100.00
12468;BME280;57850;52.922;6.256;2022-12-07T08:10:04;101781.19;;;6.54;100.00
12468;BME280;57850;52.922;6.256;2022-12-07T08:12:31;101782.09;;;6.47;100.00
12468;BME280;57850;52.922;6.256;2022-12-07T08:15:03;101779.50;;;6.44;100.00
12468;BME280;57850;52.922;6.256;2022-12-07T08:17:30;101787.28;;;6.42;100.00
12468;BME280;57850;52.922;6.256;2022-12-07T08:19:57;101791.47;;;6.71;100.00
12468;BME280;57850;52.922;6.256;2022-12-07T08:22:23;101797.56;;;6.67;100.00
12468;BME280;57850;52.922;6.256;2022-12-07T08:24:50;101831.00;;;7.12;100.00
12468;BME280;57850;52.922;6.256;2022-12-07T08:27:16;101841.41;;;7.12;100.00
12468;BME280;57850;52.922;6.256;2022-12-07T08:29:43;101823.47;;;6.68;100.00
12468;BME280;57850;52.922;6.256;2022-12-07T08:32:11;101801.09;;;6.51;100.00
12468;BME280;57850;52.922;6.256;2022-12-07T08:34:37;101781.25;;;6.36;100.00
12468;BME280;57850;52.922;6.256;2022-12-07T08:37:04;101779.53;;;6.41;100.00
12468;BME280;57850;52.922;6.256;2022-12-07T08:39:30;101780.16;;;6.85;100.00
12468;BME280;57850;52.922;6.256;2022-12-07T08:41:57;101776.84;;;6.56;100.00
12468;BME280;57850;52.922;6.256;2022-12-07T08:44:23;101782.94;;;6.51;100.00
12468;BME280;57850;52.922;6.256;2022-12-07T08:46:52;101786.28;;;6.72;100.00
12468;BME280;57850;52.922;6.256;2022-12-07T08:49:24;101782.06;;;6.50;100.00
12468;BME280;57850;52.922;6.256;2022-12-07T08:51:51;101775.13;;;6.55;100.00
12468;BME280;57850;52.922;6.256;2022-12-07T08:54:18;101788.94;;;6.59;100.00
12468;BME280;57850;52.922;6.256;2022-12-07T08:56:47;101794.09;;;6.69;100.00
12468;BME280;57850;52.922;6.256;2022-12-07T08:59:15;101815.53;;;6.95;100.00
12468;BME280;57850;52.922;6.256;2022-12-07T09:01:43;101811.47;;;6.43;100.00
12468;BME280;57850;52.922;6.256;2022-12-07T09:04:09;101817.41;;;6.69;100.00
12468;BME280;57850;52.922;6.256;2022-12-07T09:06:38;101866.66;;;8.03;100.00
12468;BME280;57850;52.922;6.256;2022-12-07T09:09:04;101908.97;;;8.99;100.00
12468;BME280;57850;52.922;6.256;2022-12-07T09:11:32;101931.44;;;9.71;100.00
12468;BME280;57850;52.922;6.256;2022-12-07T09:13:58;101949.97;;;10.07;100.00
12468;BME280;57850;52.922;6.256;2022-12-07T09:16:26;101931.34;;;9.77;100.00
12468;BME280;57850;52.922;6.256;2022-12-07T09:18:53;101933.66;;;9.95;100.00
12468;BME280;57850;52.922;6.256;2022-12-07T09:21:20;101942.78;;;10.23;100.00
12468;BME280;57850;52.922;6.256;2022-12-07T09:23:47;101962.06;;;10.62;100.00
12468;BME280;57850;52.922;6.256;2022-12-07T09:26:14;101941.31;;;10.05;100.00
12468;BME280;57850;52.922;6.256;2022-12-07T09:28:40;101914.91;;;9.10;100.00
12468;BME280;57850;52.922;6.256;2022-12-07T09:31:08;101909.88;;;8.97;100.00
12468;BME280;57850;52.922;6.256;2022-12-07T09:33:35;101919.25;;;9.08;100.00
12468;BME280;57850;52.922;6.256;2022-12-07T09:36:03;101904.19;;;8.66;100.00
12468;BME280;57850;52.922;6.256;2022-12-07T09:38:30;101903.41;;;8.56;100.00
12468;BME280;57850;52.922;6.256;2022-12-07T09:41:04;101913.47;;;8.87;100.00
12468;BME280;57850;52.922;6.256;2022-12-07T09:43:33;101908.97;;;9.01;100.00
12468;BME280;57850;52.922;6.256;2022-12-07T09:46:01;101910.91;;;8.84;100.00
12468;BME280;57850;52.922;6.256;2022-12-07T09:48:30;101911.72;;;8.87;100.00
12468;BME280;57850;52.922;6.256;2022-12-07T09:50:58;101904.97;;;8.71;100.00
12468;BME280;57850;52.922;6.256;2022-12-07T09:53:28;101904.03;;;8.80;100.00
12468;BME280;57850;52.922;6.256;2022-12-07T09:55:57;101914.72;;;9.24;100.00
12468;BME280;57850;52.922;6.256;2022-12-07T09:58:28;101939.16;;;9.77;100.00
12468;BME280;57850;52.922;6.256;2022-12-07T10:00:57;101963.53;;;10.28;100.00
12468;BME280;57850;52.922;6.256;2022-12-07T10:03:26;101979.31;;;11.15;100.00
12468;BME280;57850;52.922;6.256;2022-12-07T10:05:53;102018.38;;;12.38;100.00
12468;BME280;57850;52.922;6.256;2022-12-07T10:08:20;102014.19;;;12.98;100.00
12468;BME280;57850;52.922;6.256;2022-12-07T10:10:50;101999.50;;;12.91;100.00
12468;BME280;57850;52.922;6.256;2022-12-07T10:13:19;101999.31;;;12.66;100.00
12468;BME280;57850;52.922;6.256;2022-12-07T10:15:51;102000.34;;;12.93;100.00
12468;BME280;57850;52.922;6.256;2022-12-07T10:18:21;102008.69;;;13.09;100.00
12468;BME280;57850;52.922;6.256;2022-12-07T10:21:02;101992.72;;;12.52;100.00
12468;BME280;57850;52.922;6.256;2022-12-07T10:23:30;101960.28;;;11.88;100.00
12468;BME280;57850;52.922;6.256;2022-12-07T10:25:56;101993.56;;;12.86;100.00
12468;BME280;57850;52.922;6.256;2022-12-07T10:28:23;101986.41;;;12.91;100.00
12468;BME280;57850;52.922;6.256;2022-12-07T10:30:55;101967.34;;;12.54;100.00
12468;BME280;57850;52.922;6.256;2022-12-07T10:33:33;101981.13;;;12.62;100.00
12468;BME280;57850;52.922;6.256;2022-12-07T10:36:16;101956.56;;;12.33;100.00
12468;BME280;57850;52.922;6.256;2022-12-07T10:38:45;101973.31;;;12.91;100.00
12468;BME280;57850;52.922;6.256;2022-12-07T10:41:12;101984.81;;;13.76;100.00
12468;BME280;57850;52.922;6.256;2022-12-07T10:43:46;101984.44;;;14.67;100.00
12468;BME280;57850;52.922;6.256;2022-12-07T10:46:29;101953.63;;;13.39;100.00
12468;BME280;57850;52.922;6.256;2022-12-07T10:49:05;101951.94;;;12.75;100.00
12468;BME280;57850;52.922;6.256;2022-12-07T10:51:43;101979.44;;;13.81;100.00
12468;BME280;57850;52.922;6.256;2022-12-07T10:54:17;101976.63;;;14.90;100.00
12468;BME280;57850;52.922;6.256;2022-12-07T10:57:01;101955.00;;;13.79;100.00
12468;BME280;57850;52.922;6.256;2022-12-07T10:59:57;101956.03;;;14.78;100.00
12468;BME280;57850;52.922;6.256;2022-12-07T11:02:41;101946.81;;;13.62;100.00
12468;BME280;57850;52.922;6.256;2022-12-07T11:05:21;101953.09;;;13.84;100.00
12468;BME280;57850;52.922;6.256;2022-12-07T11:08:00;101917.91;;;11.36;100.00
12468;BME280;57850;52.922;6.256;2022-12-07T11:10:41;101940.00;;;11.98;100.00
12468;BME280;57850;52.922;6.256;2022-12-07T11:13:29;101915.72;;;11.56;100.00
12468;BME280;57850;52.922;6.256;2022-12-07T11:16:12;101919.78;;;11.67;100.00
12468;BME280;57850;52.922;6.256;2022-12-07T11:18:51;101905.09;;;10.84;100.00
12468;BME280;57850;52.922;6.256;2022-12-07T11:21:27;101904.44;;;10.74;100.00
12468;BME280;57850;52.922;6.256;2022-12-07T11:24:01;101905.53;;;11.04;100.00
12468;BME280;57850;52.922;6.256;2022-12-07T11:26:42;101894.53;;;10.90;100.00
12468;BME280;57850;52.922;6.256;2022-12-07T11:29:26;101896.53;;;10.77;100.00
12468;BME280;57850;52.922;6.256;2022-12-07T11:32:03;101889.16;;;10.53;100.00
12468;BME280;57850;52.922;6.256;2022-12-07T11:34:39;101901.66;;;10.82;100.00
12468;BME280;57850;52.922;6.256;2022-12-07T11:37:13;101887.59;;;10.44;100.00
12468;BME280;57850;52.922;6.256;2022-12-07T11:39:44;101884.97;;;10.46;100.00
12468;BME280;57850;52.922;6.256;2022-12-07T11:42:15;101869.34;;;10.44;100.00
12468;BME280;57850;52.922;6.256;2022-12-07T11:44:50;101873.69;;;10.45;100.00
12468;BME280;57850;52.922;6.256;2022-12-07T11:47:25;101861.44;;;10.49;100.00
12468;BME280;57850;52.922;6.256;2022-12-07T11:50:01;101864.59;;;10.64;100.00
12468;BME280;57850;52.922;6.256;2022-12-07T11:52:39;101886.47;;;11.40;100.00
12468;BME280;57850;52.922;6.256;2022-12-07T11:55:18;101890.19;;;12.36;100.00
12468;BME280;57850;52.922;6.256;2022-12-07T11:57:51;101888.38;;;12.69;100.00
12468;BME280;57850;52.922;6.256;2022-12-07T12:00:21;101887.63;;;13.81;100.00
12468;BME280;57850;52.922;6.256;2022-12-07T12:02:52;101903.13;;;14.39;100.00
12468;BME280;57850;52.922;6.256;2022-12-07T12:05:24;101863.56;;;14.69;100.00
12468;BME280;57850;52.922;6.256;2022-12-07T12:07:58;101860.09;;;13.92;100.00
12468;BME280;57850;52.922;6.256;2022-12-07T12:10:35;101861.31;;;13.28;100.00
12468;BME280;57850;52.922;6.256;2022-12-07T12:13:20;101873.44;;;13.86;100.00
12468;BME280;57850;52.922;6.256;2022-12-07T12:16:01;101906.28;;;14.49;100.00
12468;BME280;57850;52.922;6.256;2022-12-07T12:18:40;101866.59;;;14.33;100.00
12468;BME280;57850;52.922;6.256;2022-12-07T12:21:16;101869.53;;;13.46;100.00
12468;BME280;57850;52.922;6.256;2022-12-07T12:23:46;101876.03;;;13.34;100.00
12468;BME280;57850;52.922;6.256;2022-12-07T12:26:18;101869.47;;;12.90;100.00
12468;BME280;57850;52.922;6.256;2022-12-07T12:28:52;101892.78;;;13.82;100.00
12468;BME280;57850;52.922;6.256;2022-12-07T12:31:37;101861.84;;;13.39;100.00
12468;BME280;57850;52.922;6.256;2022-12-07T12:34:38;101881.06;;;13.12;100.00
12468;BME280;57850;52.922;6.256;2022-12-07T12:37:43;101889.25;;;14.10;100.00
12468;BME280;57850;52.922;6.256;2022-12-07T12:43:43;101856.03;;;12.41;100.00
12468;BME280;57850;52.922;6.256;2022-12-07T12:46:37;101879.66;;;12.99;100.00
12468;BME280;57850;52.922;6.256;2022-12-07T12:58:43;101835.53;;;11.19;100.00
12468;BME280;57850;52.922;6.256;2022-12-07T13:01:41;101834.59;;;11.23;100.00
12468;BME280;57850;52.922;6.256;2022-12-07T13:04:28;101832.63;;;11.33;100.00
12468;BME280;57850;52.922;6.256;2022-12-07T13:06:57;101844.88;;;11.66;100.00
12468;BME280;57850;52.922;6.256;2022-12-07T13:09:25;101831.13;;;11.58;100.00
12468;BME280;57850;52.922;6.256;2022-12-07T13:12:00;101834.06;;;11.45;100.00
12468;BME280;57850;52.922;6.256;2022-12-07T13:14:55;101833.84;;;11.54;100.00
12468;BME280;57850;52.922;6.256;2022-12-07T13:18:00;101828.03;;;11.43;100.00
12468;BME280;57850;52.922;6.256;2022-12-07T13:20:47;101808.81;;;11.08;100.00